Time;durP1;ratioP1;P1;durP2;ratioP2;P2;SDS_P1;SDS_P2;PMS_P1;PMS_P2;Temp;Humidity;BMP_temperature;BMP_pressure;BME280_temperature;BME280_humidity;BME280_pressure;Samples;Min_cycle;Max_cycle;Signal;HPM_P1;HPM_P2
2023/04/04 00:00:29;;;;;;;2.57;2.17;;;3.80;53.30;;;;;;5013857;28;20201;-88
2023/04/04 00:02:54;;;;;;;3.53;1.77;;;3.80;53.80;;;;;;5013720;28;20228;-89
2023/04/04 00:05:20;;;;;;;3.17;2.10;;;3.70;53.50;;;;;;5013865;28;20305;-88
2023/04/04 00:07:46;;;;;;;3.67;1.90;;;3.80;54.20;;;;;;5021716;28;20359;-88
2023/04/04 00:10:12;;;;;;;3.67;2.10;;;3.80;53.50;;;;;;5013922;28;20283;-88
2023/04/04 00:12:38;;;;;;;3.17;1.83;;;3.70;53.80;;;;;;5014627;28;20220;-88
2023/04/04 00:15:04;;;;;;;2.47;1.90;;;3.60;53.90;;;;;;5014354;28;20174;-89
2023/04/04 00:17:29;;;;;;;2.73;1.93;;;3.70;54.10;;;;;;5017862;28;20204;-88
2023/04/04 00:19:56;;;;;;;3.10;2.10;;;3.70;54.20;;;;;;5018386;28;20355;-88
2023/04/04 00:22:22;;;;;;;2.67;1.83;;;3.70;54.10;;;;;;5018652;28;20188;-89
2023/04/04 00:24:48;;;;;;;1.97;1.80;;;3.60;54.70;;;;;;5017252;28;20174;-89
2023/04/04 00:27:14;;;;;;;2.77;1.90;;;3.70;54.20;;;;;;5018016;28;20646;-88
2023/04/04 00:29:40;;;;;;;2.87;2.07;;;3.70;54.70;;;;;;5017500;28;20299;-89
2023/04/04 00:32:06;;;;;;;2.67;1.90;;;3.60;54.60;;;;;;5017423;28;20182;-88
2023/04/04 00:34:31;;;;;;;3.80;1.87;;;3.60;55.30;;;;;;5016473;28;20182;-89
2023/04/04 00:36:57;;;;;;;2.63;2.10;;;3.60;55.10;;;;;;5016861;28;20182;-87
2023/04/04 00:39:25;;;;;;;2.37;2.00;;;3.60;55.50;;;;;;5016146;28;20453;-89
2023/04/04 00:41:51;;;;;;;2.23;1.97;;;3.60;55.30;;;;;;5016013;28;20178;-88
2023/04/04 00:44:17;;;;;;;4.30;2.30;;;3.50;55.60;;;;;;5015578;28;20182;-89
2023/04/04 00:46:43;;;;;;;2.53;2.00;;;3.50;55.70;;;;;;5015297;28;20763;-88
2023/04/04 00:49:08;;;;;;;2.63;2.00;;;3.50;55.90;;;;;;5015475;28;20226;-89
2023/04/04 00:51:34;;;;;;;2.40;1.90;;;3.40;56.40;;;;;;5017159;28;20174;-89
2023/04/04 00:54:01;;;;;;;2.70;2.20;;;3.30;57.00;;;;;;5017111;28;20177;-90
2023/04/04 00:56:27;;;;;;;2.20;2.00;;;3.20;57.20;;;;;;5016902;28;20201;-89
2023/04/04 00:58:54;;;;;;;2.17;1.97;;;3.20;57.20;;;;;;5018189;28;20204;-88
2023/04/04 01:01:20;;;;;;;2.70;1.80;;;3.20;57.20;;;;;;5008870;28;20216;-88
2023/04/04 01:03:46;;;;;;;2.83;1.97;;;3.10;57.30;;;;;;5031064;28;20184;-89
2023/04/04 01:06:13;;;;;;;2.20;1.97;;;3.20;57.40;;;;;;5032796;28;20304;-87
2023/04/04 01:08:38;;;;;;;3.90;2.30;;;3.20;57.50;;;;;;5017878;28;20205;-90
2023/04/04 01:11:05;;;;;;;2.60;1.70;;;3.20;57.50;;;;;;5018138;28;20217;-89
2023/04/04 01:13:31;;;;;;;3.80;2.00;;;3.30;57.30;;;;;;5018004;28;20181;-88
2023/04/04 01:15:57;;;;;;;3.50;2.43;;;3.30;57.20;;;;;;5017155;28;20180;-89
2023/04/04 01:18:24;;;;;;;2.37;1.93;;;3.30;57.40;;;;;;5016839;28;20206;-88
2023/04/04 01:21:10;;;;;;;2.97;2.20;;;3.20;57.10;;;;;;5018008;28;20190;-90
2023/04/04 01:23:58;;;;;;;2.27;2.00;;;3.20;57.30;;;;;;5017310;28;20579;-88
2023/04/04 01:26:25;;;;;;;2.23;2.03;;;3.10;57.90;;;;;;5016912;28;20182;-90
2023/04/04 01:28:55;;;;;;;2.17;1.87;;;3.10;57.70;;;;;;5016637;28;20255;-90
2023/04/04 01:31:27;;;;;;;2.23;2.03;;;3.10;57.60;;;;;;5016206;28;20719;-89
2023/04/04 01:34:37;;;;;;;2.97;1.90;;;3.10;57.70;;;;;;5016650;28;20181;-88
2023/04/04 01:37:12;;;;;;;2.93;1.90;;;3.00;57.80;;;;;;4994231;28;20198;-88
2023/04/04 01:39:42;;;;;;;2.03;1.60;;;3.00;58.10;;;;;;5017594;28;20220;-88
2023/04/04 01:42:08;;;;;;;2.60;2.10;;;3.10;58.20;;;;;;5017564;28;20193;-87
2023/04/04 01:44:34;;;;;;;2.20;1.87;;;3.00;58.00;;;;;;5015876;28;20182;-89
2023/04/04 01:47:02;;;;;;;2.67;1.90;;;3.00;57.80;;;;;;5016491;28;20212;-90
2023/04/04 01:49:28;;;;;;;2.30;1.80;;;3.00;58.00;;;;;;5014576;28;20232;-86
2023/04/04 01:51:56;;;;;;;2.87;2.10;;;3.00;57.90;;;;;;5016166;28;20259;-87
2023/04/04 01:54:21;;;;;;;4.00;2.13;;;2.90;58.60;;;;;;5015107;28;20185;-89
2023/04/04 01:56:47;;;;;;;3.17;2.20;;;2.90;59.10;;;;;;5021786;28;20181;-89
2023/04/04 01:59:12;;;;;;;2.50;1.87;;;2.90;59.00;;;;;;5026324;28;20209;-88
2023/04/04 02:01:38;;;;;;;2.23;2.03;;;2.90;58.60;;;;;;5017835;28;20166;-87
2023/04/04 02:04:04;;;;;;;2.83;2.00;;;2.90;59.40;;;;;;5017452;28;20212;-89
2023/04/04 02:06:30;;;;;;;3.97;2.20;;;2.90;58.10;;;;;;5018219;28;20170;-88
2023/04/04 02:08:56;;;;;;;2.60;2.27;;;2.80;58.00;;;;;;5016385;28;20223;-89
2023/04/04 02:11:22;;;;;;;3.40;2.03;;;2.80;58.40;;;;;;5009657;28;20178;-88
2023/04/04 02:13:48;;;;;;;3.20;2.07;;;2.70;58.80;;;;;;4990997;28;20178;-88
2023/04/04 02:16:14;;;;;;;1.83;1.73;;;2.80;58.50;;;;;;5002144;28;20187;-88
2023/04/04 02:18:40;;;;;;;3.67;2.13;;;2.70;59.20;;;;;;5009783;28;20206;-88
2023/04/04 02:21:06;;;;;;;3.03;2.10;;;2.70;59.00;;;;;;5012860;28;20202;-88
2023/04/04 02:23:31;;;;;;;2.77;2.00;;;2.70;59.80;;;;;;5009421;28;20176;-88
2023/04/04 02:25:57;;;;;;;3.30;2.20;;;2.80;59.00;;;;;;5005172;28;20808;-89
2023/04/04 02:28:23;;;;;;;3.53;2.00;;;2.80;58.50;;;;;;5003551;28;20244;-88
2023/04/04 02:30:48;;;;;;;3.73;2.10;;;2.80;58.50;;;;;;5006402;28;20209;-91
2023/04/04 02:33:14;;;;;;;2.57;2.00;;;2.70;59.00;;;;;;5006379;28;20189;-88
2023/04/04 02:35:40;;;;;;;3.17;2.10;;;2.70;58.80;;;;;;5005610;28;20301;-88
2023/04/04 02:38:05;;;;;;;2.80;2.20;;;2.70;58.60;;;;;;5003030;28;20209;-89
2023/04/04 02:40:31;;;;;;;2.67;1.93;;;2.70;59.30;;;;;;5005344;28;20213;-88
2023/04/04 02:42:56;;;;;;;2.10;1.90;;;2.60;58.80;;;;;;5005258;28;20193;-89
2023/04/04 02:45:22;;;;;;;2.70;2.07;;;2.60;59.40;;;;;;5012677;28;20200;-87
2023/04/04 02:47:51;;;;;;;2.70;2.07;;;2.60;59.50;;;;;;5010940;28;20190;-89
2023/04/04 02:50:17;;;;;;;3.73;2.37;;;2.50;59.80;;;;;;5011372;28;20225;-88
2023/04/04 02:52:46;;;;;;;3.83;2.33;;;2.50;59.80;;;;;;5013669;28;20187;-89
2023/04/04 02:55:12;;;;;;;3.10;2.47;;;2.50;60.20;;;;;;5020952;28;20179;-89
2023/04/04 02:57:37;;;;;;;2.17;2.03;;;2.30;60.50;;;;;;5033237;28;20204;-88
2023/04/04 03:00:03;;;;;;;2.63;1.93;;;2.40;60.40;;;;;;4997912;28;20263;-89
2023/04/04 03:02:29;;;;;;;3.90;1.73;;;2.40;60.00;;;;;;5014947;28;20268;-88
2023/04/04 03:04:55;;;;;;;3.50;2.30;;;2.40;59.90;;;;;;5015691;28;20585;-88
2023/04/04 03:07:22;;;;;;;3.37;2.00;;;2.30;60.30;;;;;;5014933;28;20201;-87
2023/04/04 03:09:48;;;;;;;2.63;2.37;;;2.40;60.60;;;;;;5015809;28;20698;-89
2023/04/04 03:12:14;;;;;;;3.60;1.97;;;2.40;60.00;;;;;;5014962;28;20178;-88
2023/04/04 03:14:39;;;;;;;2.07;1.97;;;2.30;60.50;;;;;;5015028;28;20248;-89
2023/04/04 03:17:06;;;;;;;2.27;2.07;;;2.30;60.80;;;;;;5016478;28;20276;-89
2023/04/04 03:19:32;;;;;;;2.87;2.10;;;2.20;60.50;;;;;;5014583;28;20295;-88
2023/04/04 03:21:58;;;;;;;2.10;1.90;;;2.10;61.40;;;;;;5014203;28;20658;-89
2023/04/04 03:24:24;;;;;;;3.40;2.37;;;2.10;61.70;;;;;;4997371;28;20276;-90
2023/04/04 03:26:50;;;;;;;2.73;2.20;;;2.10;61.50;;;;;;5015216;28;20178;-88
2023/04/04 03:29:16;;;;;;;3.03;2.33;;;2.00;62.40;;;;;;5013823;28;20224;-88
2023/04/04 03:31:41;;;;;;;5.43;2.40;;;1.90;62.00;;;;;;4995417;28;20194;-89
2023/04/04 03:34:08;;;;;;;2.53;2.27;;;2.00;62.20;;;;;;4978599;28;20197;-90
2023/04/04 03:36:33;;;;;;;3.57;2.40;;;2.00;61.60;;;;;;4994880;28;20549;-88
2023/04/04 03:38:59;;;;;;;2.53;2.30;;;1.90;61.60;;;;;;5008439;28;20260;-90
2023/04/04 03:41:25;;;;;;;2.70;2.30;;;1.90;62.00;;;;;;5010697;28;20245;-89
2023/04/04 03:43:50;;;;;;;3.43;2.63;;;1.80;62.30;;;;;;5006665;28;20212;-89
2023/04/04 03:46:16;;;;;;;3.30;2.57;;;1.80;62.70;;;;;;5004116;28;20186;-89
2023/04/04 03:48:42;;;;;;;2.43;2.20;;;1.70;63.00;;;;;;5008767;28;20193;-90
2023/04/04 03:51:07;;;;;;;4.17;2.37;;;1.80;63.40;;;;;;5006863;28;20197;-89
2023/04/04 03:53:36;;;;;;;2.43;1.93;;;1.70;63.40;;;;;;5008712;28;20178;-88
2023/04/04 03:56:01;;;;;;;3.93;2.03;;;1.70;63.10;;;;;;5010348;28;20208;-88
2023/04/04 03:58:29;;;;;;;5.73;2.33;;;1.70;63.00;;;;;;5011003;28;20210;-88
2023/04/04 04:00:55;;;;;;;3.40;1.97;;;1.70;62.90;;;;;;5017475;28;20193;-87
2023/04/04 04:03:21;;;;;;;4.27;2.40;;;1.70;63.10;;;;;;5017569;28;20257;-89
2023/04/04 04:05:46;;;;;;;3.70;2.40;;;1.70;63.10;;;;;;5018271;28;20634;-88
2023/04/04 04:08:12;;;;;;;2.20;2.00;;;1.70;62.80;;;;;;5015768;28;20185;-89
2023/04/04 04:10:38;;;;;;;4.33;2.67;;;1.60;62.80;;;;;;5017009;28;20209;-88
2023/04/04 04:13:04;;;;;;;2.97;2.70;;;1.70;62.70;;;;;;5016894;28;20185;-87
2023/04/04 04:15:29;;;;;;;2.63;2.43;;;1.60;63.70;;;;;;5016377;28;20208;-89
2023/04/04 04:17:55;;;;;;;3.77;2.07;;;1.60;62.90;;;;;;5016150;28;20206;-90
2023/04/04 04:20:21;;;;;;;3.67;2.93;;;1.60;63.10;;;;;;5015215;28;20228;-89
2023/04/04 04:22:48;;;;;;;5.70;5.23;;;1.60;63.10;;;;;;5017792;28;20182;-91
2023/04/04 04:25:14;;;;;;;4.80;3.53;;;1.60;63.10;;;;;;5018114;28;20193;-90
2023/04/04 04:27:40;;;;;;;3.70;3.40;;;1.60;62.80;;;;;;5017294;28;20341;-88
2023/04/04 04:30:07;;;;;;;4.63;3.17;;;1.50;63.30;;;;;;5018251;28;20205;-89
2023/04/04 04:32:33;;;;;;;2.80;2.60;;;1.50;63.20;;;;;;5012330;28;20696;-86
2023/04/04 04:34:58;;;;;;;3.40;3.10;;;1.60;63.10;;;;;;5020762;28;20190;-87
2023/04/04 04:37:25;;;;;;;3.40;2.73;;;1.60;63.00;;;;;;5019906;28;20174;-89
2023/04/04 04:39:51;;;;;;;4.27;2.80;;;1.50;63.10;;;;;;5021410;28;20275;-87
2023/04/04 04:42:20;;;;;;;3.83;2.63;;;1.50;63.50;;;;;;5011492;28;20179;-89
2023/04/04 04:44:45;;;;;;;2.80;2.40;;;1.50;63.80;;;;;;5023623;28;20321;-87
2023/04/04 04:47:11;;;;;;;4.33;2.60;;;1.50;63.40;;;;;;5033951;28;20188;-87
2023/04/04 04:49:37;;;;;;;4.07;2.43;;;1.50;63.30;;;;;;5025593;28;20248;-85
2023/04/04 04:52:02;;;;;;;5.20;2.47;;;1.50;63.60;;;;;;5016998;28;20182;-86
2023/04/04 04:54:28;;;;;;;3.27;2.97;;;1.40;63.70;;;;;;5012543;28;20214;-90
2023/04/04 04:56:53;;;;;;;4.47;2.37;;;1.40;64.30;;;;;;5009113;28;20189;-87
2023/04/04 04:59:19;;;;;;;2.77;2.40;;;1.40;64.40;;;;;;5010112;28;20312;-87
2023/04/04 05:01:45;;;;;;;4.37;2.57;;;1.40;63.90;;;;;;5011398;28;20197;-88
2023/04/04 05:04:11;;;;;;;2.63;2.40;;;1.40;64.20;;;;;;5013573;28;20616;-87
2023/04/04 05:06:37;;;;;;;5.40;3.10;;;1.40;64.30;;;;;;5021935;28;20670;-87
2023/04/04 05:09:03;;;;;;;2.67;2.33;;;1.40;64.40;;;;;;5021644;28;20193;-88
2023/04/04 05:11:29;;;;;;;10.77;3.70;;;1.40;64.50;;;;;;5005069;28;20189;-86
2023/04/04 05:13:55;;;;;;;4.77;3.73;;;1.40;65.00;;;;;;5022430;28;20796;-87
2023/04/04 05:16:21;;;;;;;3.93;2.97;;;1.30;65.30;;;;;;5020954;28;20182;-88
2023/04/04 05:18:46;;;;;;;3.70;2.87;;;1.20;65.20;;;;;;5020072;28;20265;-87
2023/04/04 05:21:12;;;;;;;5.00;3.00;;;1.30;65.30;;;;;;5022905;28;20205;-87
2023/04/04 05:23:37;;;;;;;3.07;2.73;;;1.20;65.50;;;;;;5023656;28;20186;-87
2023/04/04 05:26:03;;;;;;;5.70;3.07;;;1.30;65.90;;;;;;5022847;28;20184;-86
2023/04/04 05:28:29;;;;;;;5.33;3.13;;;1.30;66.50;;;;;;5023524;28;20193;-85
2023/04/04 05:30:54;;;;;;;4.07;3.13;;;1.40;65.40;;;;;;5024448;28;20273;-86
2023/04/04 05:33:22;;;;;;;3.27;2.70;;;1.40;65.10;;;;;;5023299;28;20189;-88
2023/04/04 05:35:47;;;;;;;4.33;2.37;;;1.30;65.30;;;;;;5010822;28;20182;-88
2023/04/04 05:38:13;;;;;;;3.80;2.33;;;1.30;64.90;;;;;;4997508;28;20233;-88
2023/04/04 05:40:39;;;;;;;4.23;2.80;;;1.30;65.20;;;;;;5001193;28;20194;-85
2023/04/04 05:43:05;;;;;;;5.33;3.10;;;1.30;65.90;;;;;;4999132;28;20193;-89
2023/04/04 05:45:31;;;;;;;3.17;2.60;;;1.30;65.60;;;;;;5002034;28;20189;-90
2023/04/04 05:47:56;;;;;;;2.70;2.50;;;1.40;65.50;;;;;;5001477;28;20709;-88
2023/04/04 05:50:22;;;;;;;4.60;2.50;;;1.30;65.60;;;;;;4998424;28;20225;-89
2023/04/04 05:52:48;;;;;;;5.33;2.40;;;1.30;65.80;;;;;;4982534;28;20253;-86
2023/04/04 05:55:13;;;;;;;3.80;3.00;;;1.30;65.40;;;;;;4981418;28;20201;-89
2023/04/04 05:57:49;;;;;;;6.03;2.50;;;1.50;65.00;;;;;;4996083;28;20193;-88
2023/04/04 06:00:16;;;;;;;3.83;2.67;;;1.50;64.80;;;;;;4998700;28;20217;-87
2023/04/04 06:02:42;;;;;;;2.87;2.50;;;1.50;64.80;;;;;;5000522;28;20214;-89
2023/04/04 06:05:08;;;;;;;3.33;2.63;;;1.50;65.20;;;;;;5001023;28;20182;-90
2023/04/04 06:07:33;;;;;;;3.97;2.70;;;1.50;64.40;;;;;;4995060;28;20214;-87
2023/04/04 06:09:59;;;;;;;3.10;2.67;;;1.50;64.80;;;;;;4999084;28;20213;-88
2023/04/04 06:12:25;;;;;;;2.80;2.33;;;1.60;64.60;;;;;;5001530;28;20236;-88
2023/04/04 06:14:50;;;;;;;3.67;2.97;;;1.60;64.10;;;;;;4998479;28;20217;-88
2023/04/04 06:17:16;;;;;;;3.70;2.87;;;1.60;64.10;;;;;;4996962;28;20194;-87
2023/04/04 06:19:42;;;;;;;5.57;2.70;;;1.70;63.90;;;;;;4999712;28;20229;-91
2023/04/04 06:22:07;;;;;;;3.30;2.90;;;1.60;63.60;;;;;;4999791;28;20190;-86
2023/04/04 06:24:33;;;;;;;4.53;2.77;;;1.60;63.90;;;;;;4998333;28;20227;-85
2023/04/04 06:26:59;;;;;;;5.40;3.10;;;1.70;63.90;;;;;;4999354;28;20186;-88
2023/04/04 06:29:25;;;;;;;2.93;2.60;;;1.80;62.80;;;;;;4998141;28;20213;-89
2023/04/04 06:31:50;;;;;;;3.70;3.00;;;1.80;62.70;;;;;;4996202;28;20224;-90
2023/04/04 06:34:16;;;;;;;3.07;2.83;;;1.80;62.70;;;;;;4982480;28;20198;-89
2023/04/04 06:36:42;;;;;;;6.00;3.17;;;1.80;63.70;;;;;;4999446;28;20205;-87
2023/04/04 06:39:07;;;;;;;7.20;3.00;;;1.90;62.80;;;;;;4995828;28;20217;-88
2023/04/04 06:41:33;;;;;;;4.33;2.83;;;1.90;62.40;;;;;;5001892;28;20290;-87
2023/04/04 06:43:59;;;;;;;4.37;2.63;;;1.90;61.80;;;;;;4999003;28;20182;-89
2023/04/04 06:46:26;;;;;;;4.93;2.70;;;2.10;60.90;;;;;;4979645;28;20326;-88
2023/04/04 06:48:51;;;;;;;7.47;3.10;;;2.10;60.50;;;;;;4996150;28;20229;-88
2023/04/04 06:51:17;;;;;;;4.87;3.10;;;2.10;61.00;;;;;;5001477;28;20189;-88
2023/04/04 06:53:43;;;;;;;7.07;3.23;;;2.20;59.10;;;;;;5000429;28;20286;-87
2023/04/04 06:56:08;;;;;;;3.50;2.70;;;2.20;58.80;;;;;;5000045;28;20190;-87
2023/04/04 06:58:34;;;;;;;4.33;2.80;;;2.20;58.50;;;;;;4999012;28;20653;-87
2023/04/04 07:01:01;;;;;;;4.17;3.23;;;2.30;59.10;;;;;;4998455;28;20652;-87
2023/04/04 07:03:26;;;;;;;3.73;2.73;;;2.40;58.60;;;;;;4997409;28;20208;-87
2023/04/04 07:05:52;;;;;;;4.27;2.73;;;2.50;57.90;;;;;;5000715;28;20188;-87
2023/04/04 07:08:18;;;;;;;4.33;3.43;;;2.50;57.30;;;;;;4995520;28;20186;-88
2023/04/04 07:10:43;;;;;;;6.77;2.97;;;2.50;56.40;;;;;;4994871;28;20213;-89
2023/04/04 07:13:09;;;;;;;4.70;3.27;;;2.60;56.40;;;;;;4998676;28;20190;-88
2023/04/04 07:15:35;;;;;;;4.87;3.00;;;2.70;56.50;;;;;;4997582;28;20217;-89
2023/04/04 07:18:01;;;;;;;4.00;2.90;;;2.70;54.60;;;;;;4993170;28;20214;-88
2023/04/04 07:20:27;;;;;;;3.97;2.87;;;2.70;55.50;;;;;;5000698;28;20691;-86
2023/04/04 07:22:53;;;;;;;3.60;2.73;;;2.80;55.20;;;;;;4997949;28;20252;-89
2023/04/04 07:25:18;;;;;;;4.73;3.37;;;2.90;54.80;;;;;;4994830;28;20514;-86
2023/04/04 07:27:44;;;;;;;3.57;2.73;;;3.00;56.50;;;;;;4998307;28;20298;-87
2023/04/04 07:30:11;;;;;;;2.93;2.63;;;3.10;54.10;;;;;;5003003;28;20193;-86
2023/04/04 07:32:37;;;;;;;5.17;2.83;;;3.00;53.80;;;;;;5000150;28;20236;-86
2023/04/04 07:35:04;;;;;;;4.53;3.10;;;3.20;54.00;;;;;;5003498;28;20190;-89
2023/04/04 07:37:30;;;;;;;4.70;3.23;;;3.30;53.70;;;;;;5001316;28;20205;-86
2023/04/04 07:39:55;;;;;;;3.07;2.77;;;3.40;52.70;;;;;;5000120;28;20237;-86
2023/04/04 07:42:24;;;;;;;3.27;2.67;;;3.60;57.00;;;;;;4999062;28;20195;-86
2023/04/04 07:44:50;;;;;;;4.07;3.03;;;3.90;53.90;;;;;;4998822;28;20190;-89
2023/04/04 07:47:17;;;;;;;4.53;2.90;;;4.20;53.00;;;;;;4996175;28;20313;-86
2023/04/04 07:49:43;;;;;;;3.37;2.57;;;4.20;50.50;;;;;;4996507;28;20371;-85
2023/04/04 07:52:08;;;;;;;4.30;3.07;;;4.20;49.30;;;;;;4999971;28;20194;-88
2023/04/04 07:54:35;;;;;;;3.30;2.77;;;4.20;49.80;;;;;;5000784;28;20185;-88
2023/04/04 07:57:04;;;;;;;4.00;2.97;;;4.20;50.30;;;;;;4994413;28;20194;-86
2023/04/04 07:59:30;;;;;;;4.63;3.00;;;4.20;50.60;;;;;;4995289;28;20222;-86
2023/04/04 08:01:56;;;;;;;4.00;3.20;;;4.20;47.80;;;;;;5000070;28;20616;-88
2023/04/04 08:04:22;;;;;;;3.73;2.73;;;4.00;50.40;;;;;;5003216;28;20194;-87
2023/04/04 08:06:47;;;;;;;3.93;3.17;;;4.10;49.10;;;;;;4994214;28;20189;-87
2023/04/04 08:09:13;;;;;;;3.50;3.10;;;4.30;49.80;;;;;;4993782;28;20210;-88
2023/04/04 08:11:38;;;;;;;5.40;3.43;;;4.40;49.40;;;;;;4993876;28;20225;-88
2023/04/04 08:14:04;;;;;;;3.67;3.03;;;4.50;48.00;;;;;;4995573;28;20225;-88
2023/04/04 08:16:30;;;;;;;4.83;2.93;;;4.50;47.70;;;;;;4999213;28;20209;-85
2023/04/04 08:18:56;;;;;;;3.43;2.70;;;4.50;47.20;;;;;;4996425;28;20259;-88
2023/04/04 08:21:22;;;;;;;5.00;2.73;;;4.50;48.00;;;;;;4995808;28;20197;-86
2023/04/04 08:23:47;;;;;;;5.00;3.07;;;4.70;47.70;;;;;;4998200;28;20284;-86
2023/04/04 08:26:13;;;;;;;2.87;2.57;;;4.80;45.70;;;;;;4995870;28;20186;-85
2023/04/04 08:28:39;;;;;;;6.33;3.53;;;4.90;46.50;;;;;;5002151;28;20989;-86
2023/04/04 08:31:04;;;;;;;3.47;2.97;;;5.00;45.50;;;;;;5000569;28;20386;-86
2023/04/04 08:33:30;;;;;;;5.40;2.97;;;5.20;45.20;;;;;;4998705;28;20635;-87
2023/04/04 08:35:57;;;;;;;4.77;2.80;;;5.10;44.00;;;;;;4993990;28;20193;-86
2023/04/04 08:38:22;;;;;;;4.10;3.30;;;5.20;45.20;;;;;;5001633;28;21385;-88
2023/04/04 08:40:49;;;;;;;4.83;3.07;;;5.20;44.90;;;;;;5004727;28;20256;-88
2023/04/04 08:43:16;;;;;;;3.00;2.80;;;5.40;44.90;;;;;;5001495;28;20185;-85
2023/04/04 08:45:43;;;;;;;5.63;2.90;;;5.50;43.10;;;;;;5001861;28;20187;-87
2023/04/04 08:48:15;;;;;;;2.93;2.73;;;5.50;43.20;;;;;;5003482;28;20214;-88
2023/04/04 08:50:41;;;;;;;3.20;2.60;;;5.40;44.10;;;;;;5001616;28;20221;-86
2023/04/04 08:53:10;;;;;;;3.20;2.77;;;5.50;42.20;;;;;;5002543;28;20221;-87
2023/04/04 08:55:37;;;;;;;4.43;3.10;;;5.60;42.50;;;;;;5006525;28;20307;-87
2023/04/04 08:58:03;;;;;;;3.10;2.80;;;5.80;42.20;;;;;;5002724;28;20198;-86
2023/04/04 09:00:29;;;;;;;5.37;2.80;;;5.90;42.70;;;;;;4999306;28;20202;-87
2023/04/04 09:02:59;;;;;;;3.07;2.70;;;6.10;42.90;;;;;;4999857;28;20563;-85
2023/04/04 09:05:25;;;;;;;5.37;3.00;;;6.30;41.80;;;;;;4998676;28;20273;-86
2023/04/04 09:07:52;;;;;;;4.33;2.97;;;6.40;40.50;;;;;;4996783;28;20194;-86
2023/04/04 09:10:19;;;;;;;4.40;3.10;;;6.40;39.80;;;;;;4982599;28;20228;-88
2023/04/04 09:12:47;;;;;;;4.43;3.17;;;6.50;39.70;;;;;;5001960;28;20229;-86
2023/04/04 09:15:13;;;;;;;3.23;2.93;;;6.50;39.70;;;;;;5000836;28;20185;-87
2023/04/04 09:17:41;;;;;;;5.20;3.07;;;6.60;39.00;;;;;;4994291;28;20252;-88
2023/04/04 09:20:41;;;;;;;4.67;3.10;;;6.50;39.00;;;;;;5000289;28;20224;-87
2023/04/04 09:23:09;;;;;;;6.73;3.17;;;6.60;39.40;;;;;;5000118;28;20189;-87
2023/04/04 09:25:36;;;;;;;3.30;2.87;;;6.60;39.40;;;;;;5000426;28;20197;-88
2023/04/04 09:28:04;;;;;;;4.43;3.07;;;6.70;40.10;;;;;;4997019;28;20273;-86
2023/04/04 09:30:31;;;;;;;3.73;3.10;;;7.00;39.20;;;;;;4998222;28;20240;-85
2023/04/04 09:33:00;;;;;;;2.93;2.60;;;7.10;38.20;;;;;;4999365;28;20202;-87
2023/04/04 09:35:26;;;;;;;3.37;3.07;;;7.20;39.40;;;;;;5000441;28;20198;-88
2023/04/04 09:37:52;;;;;;;3.07;2.77;;;7.50;39.10;;;;;;4995646;28;20252;-86
2023/04/04 09:40:18;;;;;;;3.70;2.60;;;7.60;38.30;;;;;;5001665;28;20600;-89
2023/04/04 09:42:45;;;;;;;4.17;2.93;;;7.90;37.20;;;;;;5001422;28;20230;-86
2023/04/04 09:45:11;;;;;;;4.37;3.10;;;8.00;35.80;;;;;;4998237;28;20205;-88
2023/04/04 09:47:41;;;;;;;3.40;3.10;;;7.90;35.80;;;;;;4999204;28;20262;-87
2023/04/04 09:50:07;;;;;;;4.07;2.93;;;7.80;36.30;;;;;;5003514;28;20233;-87
2023/04/04 09:52:36;;;;;;;2.83;2.63;;;7.60;36.00;;;;;;4998606;28;20194;-87
2023/04/04 09:55:03;;;;;;;3.80;2.73;;;7.80;36.50;;;;;;4999080;28;22142;-89
2023/04/04 09:57:33;;;;;;;4.10;2.87;;;7.80;36.00;;;;;;4996698;28;20198;-87
2023/04/04 10:00:01;;;;;;;4.40;3.07;;;7.90;36.00;;;;;;5001143;28;20237;-84
2023/04/04 10:02:29;;;;;;;3.27;2.47;;;8.20;35.40;;;;;;4995286;28;20327;-88
2023/04/04 10:04:56;;;;;;;4.70;3.10;;;8.40;35.70;;;;;;4998970;28;20181;-88
2023/04/04 10:07:29;;;;;;;3.47;3.17;;;8.70;34.90;;;;;;4998034;28;20177;-84
2023/04/04 10:09:56;;;;;;;3.43;3.13;;;8.90;34.80;;;;;;4998594;28;20711;-87
2023/04/04 10:12:24;;;;;;;3.40;3.10;;;9.10;33.80;;;;;;4995817;28;20624;-87
2023/04/04 10:15:00;;;;;;;3.47;3.17;;;9.30;32.90;;;;;;4998399;28;20212;-85
2023/04/04 10:17:30;;;;;;;4.03;3.37;;;9.30;34.60;;;;;;4997770;28;20279;-87
2023/04/04 10:20:03;;;;;;;4.77;3.53;;;9.20;33.10;;;;;;5000090;28;20225;-87
2023/04/04 10:22:30;;;;;;;3.80;2.97;;;9.20;33.50;;;;;;4997866;28;20771;-87
2023/04/04 10:24:57;;;;;;;5.63;3.30;;;9.20;33.10;;;;;;4999872;28;20801;-88
2023/04/04 10:27:24;;;;;;;3.63;3.10;;;9.40;33.80;;;;;;4997575;28;20182;-85
2023/04/04 10:29:50;;;;;;;3.47;3.10;;;9.60;33.60;;;;;;4995833;28;20210;-85
2023/04/04 10:32:28;;;;;;;3.40;2.90;;;9.50;32.10;;;;;;4998892;28;20193;-86
2023/04/04 10:35:06;;;;;;;4.33;3.10;;;9.40;32.90;;;;;;5001001;28;20186;-88
2023/04/04 10:37:39;;;;;;;4.70;3.50;;;9.50;33.30;;;;;;5000378;28;20272;-87
2023/04/04 10:40:18;;;;;;;4.17;3.67;;;9.90;31.80;;;;;;5001694;28;20222;-86
2023/04/04 10:42:45;;;;;;;4.33;3.63;;;10.00;33.40;;;;;;5001207;28;20170;-88
2023/04/04 10:45:13;;;;;;;4.03;3.53;;;10.40;32.80;;;;;;4983608;28;20261;-89
2023/04/04 10:47:40;;;;;;;3.93;3.20;;;10.50;31.50;;;;;;5004487;28;20181;-87
2023/04/04 10:50:09;;;;;;;3.53;3.17;;;10.80;32.50;;;;;;4999703;28;20238;-84
2023/04/04 10:52:37;;;;;;;4.70;3.93;;;10.60;32.00;;;;;;5005038;28;20205;-87
2023/04/04 10:55:05;;;;;;;5.33;3.80;;;10.50;32.00;;;;;;5004767;28;20215;-85
2023/04/04 10:57:37;;;;;;;3.57;3.20;;;10.70;31.60;;;;;;4999143;28;20182;-86
2023/04/04 11:00:11;;;;;;;4.53;3.40;;;10.70;31.30;;;;;;4996418;28;20320;-84
2023/04/04 11:02:50;;;;;;;4.17;3.43;;;10.90;30.20;;;;;;5001639;28;20185;-87
2023/04/04 11:05:25;;;;;;;5.20;3.40;;;11.10;30.90;;;;;;5002736;28;20646;-86
2023/04/04 11:07:56;;;;;;;4.47;4.07;;;11.40;30.50;;;;;;5000493;28;20181;-88
2023/04/04 11:10:26;;;;;;;4.40;3.77;;;11.10;30.60;;;;;;4999724;28;20273;-87
2023/04/04 11:12:54;;;;;;;7.17;3.57;;;11.20;29.70;;;;;;4981354;28;20300;-87
2023/04/04 11:15:26;;;;;;;5.73;3.27;;;10.80;29.80;;;;;;4999701;28;20305;-85
2023/04/04 11:17:57;;;;;;;4.20;3.40;;;10.90;30.00;;;;;;5000520;28;20190;-87
2023/04/04 11:20:28;;;;;;;3.70;3.27;;;11.00;30.00;;;;;;5001096;28;20197;-88
2023/04/04 11:23:14;;;;;;;5.53;3.50;;;11.00;30.50;;;;;;5000837;28;20182;-88
2023/04/04 11:25:41;;;;;;;3.40;3.10;;;11.30;29.90;;;;;;4999803;28;20605;-87
2023/04/04 11:28:32;;;;;;;3.37;2.97;;;11.50;29.80;;;;;;5002289;28;20260;-88
2023/04/04 11:31:16;;;;;;;3.93;3.53;;;11.40;28.90;;;;;;4993528;28;20708;-88
2023/04/04 11:34:06;;;;;;;3.20;2.90;;;11.50;29.60;;;;;;5001951;28;20410;-85
2023/04/04 11:36:38;;;;;;;3.40;2.97;;;11.60;29.30;;;;;;4967847;28;20735;-88
2023/04/04 11:39:13;;;;;;;3.83;3.40;;;11.80;28.90;;;;;;4998348;28;20202;-86
2023/04/04 11:42:05;;;;;;;3.93;3.57;;;11.50;28.70;;;;;;5000944;28;20186;-88
2023/04/04 11:44:32;;;;;;;4.10;3.70;;;11.70;28.60;;;;;;4980802;28;20197;-87
2023/04/04 11:47:03;;;;;;;4.13;3.73;;;11.80;28.80;;;;;;5000159;28;20201;-88
2023/04/04 11:49:30;;;;;;;3.93;3.63;;;12.00;28.30;;;;;;5001786;28;20657;-88
2023/04/04 11:51:57;;;;;;;3.50;3.20;;;12.30;28.90;;;;;;4998321;28;20196;-86
2023/04/04 11:54:23;;;;;;;4.00;3.70;;;12.00;28.30;;;;;;4999412;28;20187;-88
2023/04/04 11:56:49;;;;;;;7.37;4.40;;;12.00;28.90;;;;;;5000915;28;20202;-87
2023/04/04 11:59:19;;;;;;;3.90;3.60;;;12.20;28.40;;;;;;4999194;28;20222;-88
2023/04/04 12:01:45;;;;;;;3.83;3.53;;;12.80;27.70;;;;;;4999284;28;20196;-87
2023/04/04 12:04:11;;;;;;;5.80;4.40;;;12.90;27.40;;;;;;4996953;28;20278;-82
2023/04/04 12:06:37;;;;;;;4.87;4.00;;;12.80;26.70;;;;;;4978948;28;20196;-84
2023/04/04 12:09:05;;;;;;;4.73;3.90;;;12.70;26.60;;;;;;4996312;28;20275;-87
2023/04/04 12:11:35;;;;;;;4.07;3.77;;;13.00;27.40;;;;;;5000526;28;20195;-84
2023/04/04 12:14:01;;;;;;;4.13;3.83;;;12.90;27.40;;;;;;5005303;28;20249;-86
2023/04/04 12:16:27;;;;;;;4.87;4.03;;;12.90;27.20;;;;;;5000890;28;20194;-83
2023/04/04 12:18:54;;;;;;;4.07;3.77;;;12.80;28.20;;;;;;5002187;28;20916;-84
2023/04/04 12:21:20;;;;;;;4.60;4.20;;;13.10;27.50;;;;;;5004062;28;20277;-87
2023/04/04 12:23:47;;;;;;;5.00;3.93;;;13.10;27.20;;;;;;5003407;28;20911;-86
2023/04/04 12:26:13;;;;;;;4.30;3.90;;;13.20;27.30;;;;;;4984497;28;20196;-85
2023/04/04 12:28:40;;;;;;;5.70;4.27;;;13.20;27.00;;;;;;5002217;28;20192;-86
2023/04/04 12:31:06;;;;;;;6.07;3.80;;;13.30;26.80;;;;;;5001115;28;20348;-83
2023/04/04 12:33:33;;;;;;;4.97;4.30;;;13.40;27.40;;;;;;5002112;28;20215;-85
2023/04/04 12:35:59;;;;;;;4.53;4.13;;;13.00;27.20;;;;;;5012848;28;20227;-84
2023/04/04 12:38:29;;;;;;;4.27;3.93;;;13.30;26.80;;;;;;4998793;28;20580;-87
2023/04/04 12:40:55;;;;;;;6.37;4.70;;;13.80;26.70;;;;;;4999426;28;20240;-86
2023/04/04 12:43:21;;;;;;;5.37;4.10;;;14.00;26.40;;;;;;5002544;28;20206;-87
2023/04/04 12:45:49;;;;;;;4.63;4.23;;;13.90;26.20;;;;;;5003860;28;20384;-84
2023/04/04 12:48:16;;;;;;;4.67;3.87;;;13.80;26.40;;;;;;4997751;28;20181;-88
2023/04/04 12:51:14;;;;;;;5.77;5.23;;;14.10;27.40;;;;;;5002237;28;20241;-87
2023/04/04 12:53:55;;;;;;;7.37;4.50;;;14.40;25.40;;;;;;4993789;28;20281;-88
2023/04/04 12:56:26;;;;;;;4.83;4.43;;;14.20;25.30;;;;;;4999443;28;20181;-85